sensor_id;sensor_type;location;lat;lon;timestamp;pressure;altitude;pressure_sealevel;temperature;humidity
72285;BME280;60220;53.552;10.092;2023-05-10T00:00:49;100623.16;;;15.38;45.41
72285;BME280;60220;53.552;10.092;2023-05-10T00:03:16;100613.50;;;15.86;44.29
72285;BME280;60220;53.552;10.092;2023-05-10T00:05:45;100614.00;;;15.73;44.50
72285;BME280;60220;53.552;10.092;2023-05-10T00:08:11;100610.81;;;15.63;45.21
72285;BME280;60220;53.552;10.092;2023-05-10T00:10:38;100604.31;;;15.47;45.21
72285;BME280;60220;53.552;10.092;2023-05-10T00:13:07;100605.53;;;15.63;45.76
72285;BME280;60220;53.552;10.092;2023-05-10T00:15:34;100605.50;;;15.38;46.39
72285;BME280;60220;53.552;10.092;2023-05-10T00:18:03;100602.59;;;15.71;45.36
72285;BME280;60220;53.552;10.092;2023-05-10T00:20:29;100595.56;;;15.70;45.49
72285;BME280;60220;53.552;10.092;2023-05-10T00:22:58;100603.53;;;15.19;46.99
72285;BME280;60220;53.552;10.092;2023-05-10T00:25:25;100600.47;;;15.31;46.78
72285;BME280;60220;53.552;10.092;2023-05-10T00:27:52;100593.56;;;15.53;46.52
72285;BME280;60220;53.552;10.092;2023-05-10T00:30:22;100589.28;;;15.23;46.72
72285;BME280;60220;53.552;10.092;2023-05-10T00:32:48;100598.66;;;15.33;46.65
72285;BME280;60220;53.552;10.092;2023-05-10T00:35:17;100585.28;;;15.62;45.96
72285;BME280;60220;53.552;10.092;2023-05-10T00:37:43;100584.13;;;15.69;46.33
72285;BME280;60220;53.552;10.092;2023-05-10T00:40:13;100583.81;;;15.29;46.94
72285;BME280;60220;53.552;10.092;2023-05-10T00:42:42;100585.94;;;15.18;47.07
72285;BME280;60220;53.552;10.092;2023-05-10T00:45:09;100588.09;;;15.06;46.69
72285;BME280;60220;53.552;10.092;2023-05-10T00:47:38;100583.56;;;15.10;47.99
72285;BME280;60220;53.552;10.092;2023-05-10T00:50:06;100580.34;;;15.27;46.41
72285;BME280;60220;53.552;10.092;2023-05-10T00:52:38;100579.41;;;15.54;46.39
72285;BME280;60220;53.552;10.092;2023-05-10T00:55:06;100574.22;;;15.49;46.68
72285;BME280;60220;53.552;10.092;2023-05-10T00:57:33;100578.19;;;15.63;46.32
72285;BME280;60220;53.552;10.092;2023-05-10T01:00:02;100578.06;;;15.16;46.95
72285;BME280;60220;53.552;10.092;2023-05-10T01:02:29;100575.38;;;15.18;47.25
72285;BME280;60220;53.552;10.092;2023-05-10T01:04:58;100571.41;;;15.29;47.18
72285;BME280;60220;53.552;10.092;2023-05-10T01:07:27;100567.06;;;15.28;47.22
72285;BME280;60220;53.552;10.092;2023-05-10T01:09:54;100575.38;;;14.91;48.15
72285;BME280;60220;53.552;10.092;2023-05-10T01:12:21;100561.81;;;15.53;46.80
72285;BME280;60220;53.552;10.092;2023-05-10T01:14:48;100555.88;;;15.45;46.35
72285;BME280;60220;53.552;10.092;2023-05-10T01:17:15;100565.22;;;15.30;47.38
72285;BME280;60220;53.552;10.092;2023-05-10T01:19:44;100557.44;;;15.26;47.06
72285;BME280;60220;53.552;10.092;2023-05-10T01:22:30;100564.47;;;15.27;46.55
72285;BME280;60220;53.552;10.092;2023-05-10T01:25:26;100565.66;;;15.18;47.33
72285;BME280;60220;53.552;10.092;2023-05-10T01:28:12;100561.97;;;15.72;46.24
72285;BME280;60220;53.552;10.092;2023-05-10T01:33:59;100567.91;;;15.04;47.70
72285;BME280;60220;53.552;10.092;2023-05-10T01:36:31;100566.97;;;15.56;46.53
72285;BME280;60220;53.552;10.092;2023-05-10T01:39:02;100563.56;;;15.28;46.60
72285;BME280;60220;53.552;10.092;2023-05-10T01:41:40;100571.16;;;15.12;48.17
72285;BME280;60220;53.552;10.092;2023-05-10T01:44:13;100573.75;;;15.14;47.43
72285;BME280;60220;53.552;10.092;2023-05-10T01:46:48;100566.22;;;14.75;48.23
72285;BME280;60220;53.552;10.092;2023-05-10T01:49:20;100567.75;;;14.82;48.46
72285;BME280;60220;53.552;10.092;2023-05-10T01:51:54;100570.00;;;14.68;49.31
72285;BME280;60220;53.552;10.092;2023-05-10T01:54:22;100557.69;;;14.67;48.68
72285;BME280;60220;53.552;10.092;2023-05-10T01:56:55;100560.03;;;14.76;48.54
72285;BME280;60220;53.552;10.092;2023-05-10T01:59:28;100561.38;;;14.63;48.97
72285;BME280;60220;53.552;10.092;2023-05-10T02:01:57;100556.22;;;14.85;49.19
72285;BME280;60220;53.552;10.092;2023-05-10T02:04:27;100559.44;;;14.40;49.74
72285;BME280;60220;53.552;10.092;2023-05-10T02:06:55;100554.22;;;14.09;50.65
72285;BME280;60220;53.552;10.092;2023-05-10T02:09:22;100555.66;;;14.49;49.89
72285;BME280;60220;53.552;10.092;2023-05-10T02:11:53;100553.47;;;14.61;49.87
72285;BME280;60220;53.552;10.092;2023-05-10T02:14:24;100551.09;;;14.54;50.20
72285;BME280;60220;53.552;10.092;2023-05-10T02:16:53;100553.09;;;14.46;50.22
72285;BME280;60220;53.552;10.092;2023-05-10T02:19:23;100551.69;;;14.62;49.86
72285;BME280;60220;53.552;10.092;2023-05-10T02:21:55;100559.63;;;14.62;49.34
72285;BME280;60220;53.552;10.092;2023-05-10T02:24:22;100559.50;;;14.39;50.14
72285;BME280;60220;53.552;10.092;2023-05-10T02:26:54;100555.91;;;14.12;50.49
72285;BME280;60220;53.552;10.092;2023-05-10T02:29:23;100549.88;;;14.90;48.86
72285;BME280;60220;53.552;10.092;2023-05-10T02:31:51;100555.88;;;14.13;50.72
72285;BME280;60220;53.552;10.092;2023-05-10T02:34:19;100557.63;;;14.42;50.06
72285;BME280;60220;53.552;10.092;2023-05-10T02:36:47;100555.22;;;14.62;49.59
72285;BME280;60220;53.552;10.092;2023-05-10T02:39:16;100546.19;;;13.85;51.44
72285;BME280;60220;53.552;10.092;2023-05-10T02:41:45;100546.97;;;14.16;50.89
72285;BME280;60220;53.552;10.092;2023-05-10T02:44:14;100545.59;;;14.60;50.40
72285;BME280;60220;53.552;10.092;2023-05-10T02:46:42;100552.69;;;14.30;50.98
72285;BME280;60220;53.552;10.092;2023-05-10T02:49:09;100547.84;;;13.87;51.80
72285;BME280;60220;53.552;10.092;2023-05-10T02:51:38;100546.38;;;14.06;51.52
72285;BME280;60220;53.552;10.092;2023-05-10T02:54:10;100546.53;;;14.30;51.40
72285;BME280;60220;53.552;10.092;2023-05-10T02:56:42;100536.88;;;14.01;51.92
72285;BME280;60220;53.552;10.092;2023-05-10T02:59:13;100538.03;;;13.92;50.48
72285;BME280;60220;53.552;10.092;2023-05-10T03:01:40;100531.72;;;13.98;50.78
72285;BME280;60220;53.552;10.092;2023-05-10T03:04:09;100533.94;;;14.10;51.17
72285;BME280;60220;53.552;10.092;2023-05-10T03:06:35;100536.38;;;14.17;50.69
72285;BME280;60220;53.552;10.092;2023-05-10T03:09:05;100543.56;;;13.85;52.08
72285;BME280;60220;53.552;10.092;2023-05-10T03:11:46;100542.69;;;13.84;52.68
72285;BME280;60220;53.552;10.092;2023-05-10T03:14:21;100546.81;;;13.93;51.48
72285;BME280;60220;53.552;10.092;2023-05-10T03:16:56;100540.53;;;13.67;52.39
72285;BME280;60220;53.552;10.092;2023-05-10T03:19:27;100540.50;;;14.26;51.45
72285;BME280;60220;53.552;10.092;2023-05-10T03:21:59;100539.38;;;13.76;52.21
72285;BME280;60220;53.552;10.092;2023-05-10T03:24:29;100538.66;;;13.71;52.71
72285;BME280;60220;53.552;10.092;2023-05-10T03:27:00;100535.50;;;13.89;51.84
72285;BME280;60220;53.552;10.092;2023-05-10T03:29:29;100531.56;;;13.73;53.08
72285;BME280;60220;53.552;10.092;2023-05-10T03:31:57;100529.69;;;13.76;52.18
72285;BME280;60220;53.552;10.092;2023-05-10T03:34:29;100533.25;;;13.75;52.25
72285;BME280;60220;53.552;10.092;2023-05-10T03:36:59;100537.84;;;13.69;53.00
72285;BME280;60220;53.552;10.092;2023-05-10T03:39:28;100533.78;;;13.87;52.26
72285;BME280;60220;53.552;10.092;2023-05-10T03:41:55;100537.94;;;13.66;53.40
72285;BME280;60220;53.552;10.092;2023-05-10T03:44:23;100531.53;;;13.44;54.47
72285;BME280;60220;53.552;10.092;2023-05-10T03:46:49;100528.06;;;13.72;53.23
72285;BME280;60220;53.552;10.092;2023-05-10T03:49:16;100531.09;;;14.17;51.04
72285;BME280;60220;53.552;10.092;2023-05-10T03:51:43;100536.34;;;14.19;52.46
72285;BME280;60220;53.552;10.092;2023-05-10T03:54:11;100532.78;;;13.91;52.51
72285;BME280;60220;53.552;10.092;2023-05-10T03:56:39;100542.34;;;13.95;52.23
72285;BME280;60220;53.552;10.092;2023-05-10T03:59:05;100533.97;;;13.80;53.08
72285;BME280;60220;53.552;10.092;2023-05-10T04:01:35;100533.09;;;13.51;53.29
72285;BME280;60220;53.552;10.092;2023-05-10T04:04:02;100533.34;;;13.42;53.05
72285;BME280;60220;53.552;10.092;2023-05-10T04:06:29;100527.19;;;13.72;53.66
72285;BME280;60220;53.552;10.092;2023-05-10T04:08:58;100524.38;;;13.78;52.25
72285;BME280;60220;53.552;10.092;2023-05-10T04:11:29;100538.69;;;14.28;52.00
72285;BME280;60220;53.552;10.092;2023-05-10T04:13:55;100536.94;;;13.99;53.59
72285;BME280;60220;53.552;10.092;2023-05-10T04:16:24;100531.53;;;14.04;52.89
72285;BME280;60220;53.552;10.092;2023-05-10T04:18:52;100535.84;;;13.77;53.00
72285;BME280;60220;53.552;10.092;2023-05-10T04:21:19;100527.75;;;13.83;52.36
72285;BME280;60220;53.552;10.092;2023-05-10T04:23:46;100533.00;;;13.85;52.07
72285;BME280;60220;53.552;10.092;2023-05-10T04:26:13;100525.13;;;13.83;51.75
72285;BME280;60220;53.552;10.092;2023-05-10T04:28:39;100533.94;;;13.82;52.62
72285;BME280;60220;53.552;10.092;2023-05-10T04:31:07;100528.25;;;13.35;53.14
72285;BME280;60220;53.552;10.092;2023-05-10T04:33:34;100527.31;;;13.69;53.57
72285;BME280;60220;53.552;10.092;2023-05-10T04:36:03;100526.94;;;13.81;53.50
72285;BME280;60220;53.552;10.092;2023-05-10T04:38:30;100533.47;;;13.97;53.44
72285;BME280;60220;53.552;10.092;2023-05-10T04:41:04;100528.44;;;13.90;52.36
72285;BME280;60220;53.552;10.092;2023-05-10T04:43:33;100530.56;;;13.77;52.28
72285;BME280;60220;53.552;10.092;2023-05-10T04:46:02;100533.19;;;14.06;52.46
72285;BME280;60220;53.552;10.092;2023-05-10T04:48:29;100532.31;;;14.63;51.10
72285;BME280;60220;53.552;10.092;2023-05-10T04:50:56;100532.91;;;14.15;53.57
72285;BME280;60220;53.552;10.092;2023-05-10T04:53:26;100533.06;;;14.93;51.19
72285;BME280;60220;53.552;10.092;2023-05-10T04:55:53;100534.31;;;14.81;51.57
72285;BME280;60220;53.552;10.092;2023-05-10T04:58:20;100541.94;;;14.38;53.24
72285;BME280;60220;53.552;10.092;2023-05-10T05:00:46;100539.25;;;14.65;52.06
72285;BME280;60220;53.552;10.092;2023-05-10T05:03:13;100533.88;;;14.69;50.69
72285;BME280;60220;53.552;10.092;2023-05-10T05:05:40;100534.84;;;14.66;52.45
72285;BME280;60220;53.552;10.092;2023-05-10T05:08:06;100530.03;;;14.79;49.72
72285;BME280;60220;53.552;10.092;2023-05-10T05:10:37;100543.28;;;14.77;53.08
72285;BME280;60220;53.552;10.092;2023-05-10T05:13:03;100527.88;;;15.15;51.47
72285;BME280;60220;53.552;10.092;2023-05-10T05:15:30;100535.84;;;14.88;51.48
72285;BME280;60220;53.552;10.092;2023-05-10T05:17:56;100535.78;;;15.15;50.32
72285;BME280;60220;53.552;10.092;2023-05-10T05:20:23;100530.13;;;15.50;49.07
72285;BME280;60220;53.552;10.092;2023-05-10T05:22:52;100527.94;;;15.38;49.60
72285;BME280;60220;53.552;10.092;2023-05-10T05:25:21;100535.44;;;14.48;50.53
72285;BME280;60220;53.552;10.092;2023-05-10T05:27:49;100534.00;;;14.90;50.71
72285;BME280;60220;53.552;10.092;2023-05-10T05:30:15;100533.97;;;15.17;49.54
72285;BME280;60220;53.552;10.092;2023-05-10T05:32:42;100528.84;;;15.37;49.80
72285;BME280;60220;53.552;10.092;2023-05-10T05:35:09;100544.81;;;14.84;51.88
72285;BME280;60220;53.552;10.092;2023-05-10T05:37:36;100539.81;;;14.75;50.98
72285;BME280;60220;53.552;10.092;2023-05-10T05:40:06;100546.63;;;14.56;50.94
72285;BME280;60220;53.552;10.092;2023-05-10T05:42:33;100540.88;;;14.70;50.67
72285;BME280;60220;53.552;10.092;2023-05-10T05:45:01;100541.03;;;14.91;51.40
72285;BME280;60220;53.552;10.092;2023-05-10T05:47:30;100533.59;;;15.02;49.36
72285;BME280;60220;53.552;10.092;2023-05-10T05:49:56;100540.91;;;14.94;50.10
72285;BME280;60220;53.552;10.092;2023-05-10T05:52:23;100542.78;;;14.64;50.10
72285;BME280;60220;53.552;10.092;2023-05-10T05:54:50;100539.81;;;14.75;50.81
72285;BME280;60220;53.552;10.092;2023-05-10T05:57:19;100543.56;;;14.94;49.22
72285;BME280;60220;53.552;10.092;2023-05-10T05:59:46;100547.63;;;14.52;51.23
72285;BME280;60220;53.552;10.092;2023-05-10T06:02:14;100541.53;;;14.20;52.43
72285;BME280;60220;53.552;10.092;2023-05-10T06:04:41;100547.94;;;14.95;50.51
72285;BME280;60220;53.552;10.092;2023-05-10T06:07:07;100543.50;;;15.45;48.76
72285;BME280;60220;53.552;10.092;2023-05-10T06:09:34;100535.16;;;15.33;48.89
72285;BME280;60220;53.552;10.092;2023-05-10T06:12:00;100544.34;;;14.72;49.99
72285;BME280;60220;53.552;10.092;2023-05-10T06:14:27;100542.25;;;14.81;50.26
72285;BME280;60220;53.552;10.092;2023-05-10T06:16:54;100546.34;;;14.90;51.69
72285;BME280;60220;53.552;10.092;2023-05-10T06:19:22;100540.38;;;15.59;49.20
72285;BME280;60220;53.552;10.092;2023-05-10T06:21:48;100553.00;;;15.01;48.36
72285;BME280;60220;53.552;10.092;2023-05-10T06:24:16;100548.56;;;14.77;49.91
72285;BME280;60220;53.552;10.092;2023-05-10T06:26:46;100545.78;;;15.06;49.79
72285;BME280;60220;53.552;10.092;2023-05-10T06:29:17;100554.19;;;14.93;49.54
72285;BME280;60220;53.552;10.092;2023-05-10T06:31:43;100555.31;;;14.86;49.78
72285;BME280;60220;53.552;10.092;2023-05-10T06:34:10;100553.03;;;14.49;50.74
72285;BME280;60220;53.552;10.092;2023-05-10T06:36:38;100563.13;;;14.62;50.73
72285;BME280;60220;53.552;10.092;2023-05-10T06:39:05;100565.88;;;15.12;49.70
72285;BME280;60220;53.552;10.092;2023-05-10T06:41:32;100562.63;;;14.78;50.28
72285;BME280;60220;53.552;10.092;2023-05-10T06:43:59;100564.44;;;15.02;49.75
72285;BME280;60220;53.552;10.092;2023-05-10T06:46:25;100569.81;;;14.46;51.99
72285;BME280;60220;53.552;10.092;2023-05-10T06:48:52;100557.91;;;15.38;49.33
72285;BME280;60220;53.552;10.092;2023-05-10T06:51:19;100568.16;;;14.96;50.93
72285;BME280;60220;53.552;10.092;2023-05-10T06:53:47;100564.44;;;15.02;49.85
72285;BME280;60220;53.552;10.092;2023-05-10T06:56:14;100565.66;;;15.43;49.09
72285;BME280;60220;53.552;10.092;2023-05-10T06:58:41;100567.66;;;14.85;50.84
72285;BME280;60220;53.552;10.092;2023-05-10T07:01:07;100573.66;;;14.64;51.70
72285;BME280;60220;53.552;10.092;2023-05-10T07:03:37;100565.38;;;15.01;51.91
72285;BME280;60220;53.552;10.092;2023-05-10T07:06:05;100564.69;;;15.21;50.89
72285;BME280;60220;53.552;10.092;2023-05-10T07:08:35;100567.28;;;14.96;50.96
72285;BME280;60220;53.552;10.092;2023-05-10T07:11:04;100573.38;;;14.73;51.94
72285;BME280;60220;53.552;10.092;2023-05-10T07:13:32;100561.28;;;15.17;50.44
72285;BME280;60220;53.552;10.092;2023-05-10T07:16:00;100572.53;;;14.97;50.89
72285;BME280;60220;53.552;10.092;2023-05-10T07:18:27;100575.78;;;15.05;51.40
72285;BME280;60220;53.552;10.092;2023-05-10T07:20:54;100573.75;;;15.88;49.87
72285;BME280;60220;53.552;10.092;2023-05-10T07:23:23;100571.34;;;15.80;49.29
72285;BME280;60220;53.552;10.092;2023-05-10T07:25:50;100580.13;;;15.82;50.31
72285;BME280;60220;53.552;10.092;2023-05-10T07:28:19;100579.06;;;15.86;49.91
72285;BME280;60220;53.552;10.092;2023-05-10T07:30:49;100575.91;;;16.23;48.68
72285;BME280;60220;53.552;10.092;2023-05-10T07:33:16;100577.53;;;15.81;50.62
72285;BME280;60220;53.552;10.092;2023-05-10T07:35:45;100571.91;;;15.65;51.08
72285;BME280;60220;53.552;10.092;2023-05-10T07:38:11;100577.22;;;16.12;49.61
72285;BME280;60220;53.552;10.092;2023-05-10T07:40:39;100573.44;;;16.19;50.30
72285;BME280;60220;53.552;10.092;2023-05-10T07:43:08;100577.88;;;16.18;48.60
72285;BME280;60220;53.552;10.092;2023-05-10T07:45:36;100579.34;;;16.25;49.82
72285;BME280;60220;53.552;10.092;2023-05-10T07:48:05;100574.94;;;16.69;48.14
72285;BME280;60220;53.552;10.092;2023-05-10T07:50:32;100572.78;;;16.57;49.30
72285;BME280;60220;53.552;10.092;2023-05-10T07:52:59;100576.03;;;16.42;50.17
72285;BME280;60220;53.552;10.092;2023-05-10T07:55:25;100570.91;;;17.03;48.08
72285;BME280;60220;53.552;10.092;2023-05-10T07:57:52;100568.97;;;16.64;47.36
72285;BME280;60220;53.552;10.092;2023-05-10T08:00:20;100572.06;;;16.09;50.12
72285;BME280;60220;53.552;10.092;2023-05-10T08:02:50;100572.88;;;15.87;48.81
72285;BME280;60220;53.552;10.092;2023-05-10T08:05:17;100586.81;;;16.14;49.87
72285;BME280;60220;53.552;10.092;2023-05-10T08:07:44;100582.34;;;16.83;47.00
72285;BME280;60220;53.552;10.092;2023-05-10T08:10:10;100587.88;;;17.39;46.38
72285;BME280;60220;53.552;10.092;2023-05-10T08:12:37;100590.34;;;16.38;48.97
72285;BME280;60220;53.552;10.092;2023-05-10T08:15:05;100602.09;;;16.08;48.64
72285;BME280;60220;53.552;10.092;2023-05-10T08:17:32;100603.16;;;15.56;49.89
72285;BME280;60220;53.552;10.092;2023-05-10T08:20:00;100599.69;;;15.78;50.24
72285;BME280;60220;53.552;10.092;2023-05-10T08:22:28;100605.28;;;15.69;49.94
72285;BME280;60220;53.552;10.092;2023-05-10T08:24:54;100603.97;;;16.04;50.17
72285;BME280;60220;53.552;10.092;2023-05-10T08:27:21;100603.84;;;16.09;50.30
72285;BME280;60220;53.552;10.092;2023-05-10T08:29:50;100601.28;;;15.82;50.01
72285;BME280;60220;53.552;10.092;2023-05-10T08:32:17;100607.44;;;16.29;48.93
72285;BME280;60220;53.552;10.092;2023-05-10T08:34:44;100604.72;;;16.31;49.03
72285;BME280;60220;53.552;10.092;2023-05-10T08:37:12;100608.06;;;15.89;49.68
72285;BME280;60220;53.552;10.092;2023-05-10T08:39:41;100603.22;;;16.47;48.85
72285;BME280;60220;53.552;10.092;2023-05-10T08:42:11;100607.97;;;15.92;49.88
72285;BME280;60220;53.552;10.092;2023-05-10T08:44:38;100600.25;;;16.10;49.58
72285;BME280;60220;53.552;10.092;2023-05-10T08:47:06;100607.59;;;16.48;49.76
72285;BME280;60220;53.552;10.092;2023-05-10T08:49:33;100600.53;;;16.70;48.32
72285;BME280;60220;53.552;10.092;2023-05-10T08:52:02;100613.03;;;16.89;48.30
72285;BME280;60220;53.552;10.092;2023-05-10T08:54:32;100615.13;;;16.59;48.74
72285;BME280;60220;53.552;10.092;2023-05-10T08:56:59;100618.94;;;16.52;49.10
72285;BME280;60220;53.552;10.092;2023-05-10T08:59:27;100620.69;;;16.96;49.22
72285;BME280;60220;53.552;10.092;2023-05-10T09:01:55;100622.63;;;16.24;50.87
72285;BME280;60220;53.552;10.092;2023-05-10T09:04:24;100624.50;;;16.89;48.62
72285;BME280;60220;53.552;10.092;2023-05-10T09:06:53;100637.69;;;17.12;48.27
72285;BME280;60220;53.552;10.092;2023-05-10T09:09:20;100638.72;;;16.88;49.85
72285;BME280;60220;53.552;10.092;2023-05-10T09:11:49;100635.38;;;16.15;50.21
72285;BME280;60220;53.552;10.092;2023-05-10T09:14:18;100637.41;;;16.76;49.34
72285;BME280;60220;53.552;10.092;2023-05-10T09:16:46;100636.72;;;16.71;52.00
72285;BME280;60220;53.552;10.092;2023-05-10T09:19:15;100641.22;;;16.46;50.22
72285;BME280;60220;53.552;10.092;2023-05-10T09:21:43;100640.66;;;17.05;49.27
72285;BME280;60220;53.552;10.092;2023-05-10T09:24:10;100642.38;;;17.06;49.66
72285;BME280;60220;53.552;10.092;2023-05-10T09:26:45;100655.16;;;17.18;50.04
72285;BME280;60220;53.552;10.092;2023-05-10T09:29:14;100645.41;;;16.75;50.79
72285;BME280;60220;53.552;10.092;2023-05-10T09:31:44;100649.16;;;16.69;51.55
72285;BME280;60220;53.552;10.092;2023-05-10T09:34:17;100654.34;;;16.49;51.80
72285;BME280;60220;53.552;10.092;2023-05-10T09:36:51;100663.31;;;16.92;51.38
72285;BME280;60220;53.552;10.092;2023-05-10T09:39:19;100670.81;;;17.44;50.02
72285;BME280;60220;53.552;10.092;2023-05-10T09:41:47;100676.03;;;16.60;51.27
72285;BME280;60220;53.552;10.092;2023-05-10T09:44:17;100671.25;;;16.23;52.54
72285;BME280;60220;53.552;10.092;2023-05-10T09:46:49;100675.28;;;15.85;54.14
72285;BME280;60220;53.552;10.092;2023-05-10T09:49:16;100670.13;;;15.82;54.36
72285;BME280;60220;53.552;10.092;2023-05-10T09:51:43;100682.50;;;15.56;55.70
72285;BME280;60220;53.552;10.092;2023-05-10T09:54:10;100686.50;;;15.15;57.34
72285;BME280;60220;53.552;10.092;2023-05-10T09:56:38;100683.38;;;15.56;57.57
72285;BME280;60220;53.552;10.092;2023-05-10T09:59:09;100689.97;;;15.43;59.63
72285;BME280;60220;53.552;10.092;2023-05-10T10:01:38;100692.91;;;15.62;60.05
72285;BME280;60220;53.552;10.092;2023-05-10T10:04:07;100698.59;;;14.95;62.91
72285;BME280;60220;53.552;10.092;2023-05-10T10:06:37;100702.63;;;14.50;65.48
72285;BME280;60220;53.552;10.092;2023-05-10T10:09:06;100704.28;;;14.23;66.82
72285;BME280;60220;53.552;10.092;2023-05-10T10:11:34;100707.94;;;14.19;67.93
72285;BME280;60220;53.552;10.092;2023-05-10T10:14:04;100719.94;;;13.98;69.14
72285;BME280;60220;53.552;10.092;2023-05-10T10:16:31;100723.47;;;13.65;71.55
72285;BME280;60220;53.552;10.092;2023-05-10T10:19:00;100725.97;;;14.03;72.41
72285;BME280;60220;53.552;10.092;2023-05-10T10:21:28;100725.44;;;13.21;74.44
72285;BME280;60220;53.552;10.092;2023-05-10T10:23:54;100735.69;;;13.69;75.23
72285;BME280;60220;53.552;10.092;2023-05-10T10:26:21;100733.97;;;13.32;77.18
72285;BME280;60220;53.552;10.092;2023-05-10T10:28:51;100744.00;;;13.54;77.86
72285;BME280;60220;53.552;10.092;2023-05-10T10:31:27;100739.69;;;13.14;79.39
72285;BME280;60220;53.552;10.092;2023-05-10T10:34:05;100740.47;;;13.18;79.82
72285;BME280;60220;53.552;10.092;2023-05-10T10:36:33;100745.50;;;12.90;81.51
72285;BME280;60220;53.552;10.092;2023-05-10T10:39:09;100741.72;;;13.00;82.14
72285;BME280;60220;53.552;10.092;2023-05-10T10:41:40;100748.94;;;13.66;81.30
72285;BME280;60220;53.552;10.092;2023-05-10T10:44:26;100749.72;;;12.97;81.99
72285;BME280;60220;53.552;10.092;2023-05-10T10:47:02;100757.91;;;12.85;83.57
72285;BME280;60220;53.552;10.092;2023-05-10T10:49:32;100760.69;;;13.17;83.23
72285;BME280;60220;53.552;10.092;2023-05-10T10:52:22;100750.66;;;13.68;81.92
72285;BME280;60220;53.552;10.092;2023-05-10T10:54:50;100759.84;;;13.15;82.62
72285;BME280;60220;53.552;10.092;2023-05-10T10:57:18;100764.63;;;13.72;80.73
72285;BME280;60220;53.552;10.092;2023-05-10T10:59:49;100762.00;;;13.70;81.08
72285;BME280;60220;53.552;10.092;2023-05-10T11:02:34;100763.38;;;13.51;83.34
72285;BME280;60220;53.552;10.092;2023-05-10T11:05:39;100765.50;;;13.71;82.68
72285;BME280;60220;53.552;10.092;2023-05-10T11:08:14;100767.03;;;13.46;83.16
72285;BME280;60220;53.552;10.092;2023-05-10T11:10:50;100762.59;;;13.48;82.16
72285;BME280;60220;53.552;10.092;2023-05-10T11:13:28;100763.97;;;13.64;82.44
72285;BME280;60220;53.552;10.092;2023-05-10T11:15:56;100769.09;;;14.02;81.90
72285;BME280;60220;53.552;10.092;2023-05-10T11:18:29;100775.56;;;13.91;81.22
72285;BME280;60220;53.552;10.092;2023-05-10T11:20:59;100778.94;;;13.96;83.42
72285;BME280;60220;53.552;10.092;2023-05-10T11:23:32;100778.81;;;14.00;83.33
72285;BME280;60220;53.552;10.092;2023-05-10T11:25:59;100778.50;;;14.12;82.29
72285;BME280;60220;53.552;10.092;2023-05-10T11:28:26;100774.47;;;14.30;81.67
72285;BME280;60220;53.552;10.092;2023-05-10T11:30:54;100780.72;;;14.28;82.14
72285;BME280;60220;53.552;10.092;2023-05-10T11:33:21;100782.13;;;14.41;81.38
72285;BME280;60220;53.552;10.092;2023-05-10T11:35:47;100780.31;;;14.10;82.36
72285;BME280;60220;53.552;10.092;2023-05-10T11:38:18;100792.41;;;13.85;84.08
72285;BME280;60220;53.552;10.092;2023-05-10T11:40:51;100787.91;;;14.55;82.16
72285;BME280;60220;53.552;10.092;2023-05-10T11:43:18;100789.19;;;14.40;80.42
72285;BME280;60220;53.552;10.092;2023-05-10T11:45:45;100796.13;;;13.78;83.42
72285;BME280;60220;53.552;10.092;2023-05-10T11:48:11;100798.16;;;14.01;84.13
72285;BME280;60220;53.552;10.092;2023-05-10T11:50:40;100792.41;;;14.19;82.09
72285;BME280;60220;53.552;10.092;2023-05-10T11:53:10;100798.72;;;14.13;82.26
72285;BME280;60220;53.552;10.092;2023-05-10T11:55:41;100806.47;;;14.52;82.04
72285;BME280;60220;53.552;10.092;2023-05-10T11:58:07;100803.28;;;14.41;83.03
72285;BME280;60220;53.552;10.092;2023-05-10T12:00:36;100808.41;;;13.79;84.32
72285;BME280;60220;53.552;10.092;2023-05-10T12:03:03;100809.16;;;13.49;84.68
72285;BME280;60220;53.552;10.092;2023-05-10T12:05:32;100806.34;;;13.56;84.58
72285;BME280;60220;53.552;10.092;2023-05-10T12:08:12;100813.00;;;14.05;83.77
72285;BME280;60220;53.552;10.092;2023-05-10T12:10:43;100817.00;;;13.87;83.48
72285;BME280;60220;53.552;10.092;2023-05-10T12:13:12;100815.25;;;13.86;84.34
72285;BME280;60220;53.552;10.092;2023-05-10T12:15:41;100818.41;;;14.00;84.89
72285;BME280;60220;53.552;10.092;2023-05-10T12:18:11;100820.47;;;13.89;84.38
72285;BME280;60220;53.552;10.092;2023-05-10T12:20:39;100823.88;;;13.94;83.87
72285;BME280;60220;53.552;10.092;2023-05-10T12:23:08;100833.16;;;14.43;82.71
72285;BME280;60220;53.552;10.092;2023-05-10T12:25:37;100816.88;;;14.58;82.77
72285;BME280;60220;53.552;10.092;2023-05-10T12:28:08;100823.06;;;14.88;81.68
72285;BME280;60220;53.552;10.092;2023-05-10T12:30:38;100819.53;;;15.17;82.04
72285;BME280;60220;53.552;10.092;2023-05-10T12:33:08;100822.75;;;15.82;79.75
72285;BME280;60220;53.552;10.092;2023-05-10T12:35:44;100822.00;;;15.50;82.02
72285;BME280;60220;53.552;10.092;2023-05-10T12:38:28;100826.28;;;15.27;80.61
72285;BME280;60220;53.552;10.092;2023-05-10T12:40:56;100825.84;;;15.13;80.18
72285;BME280;60220;53.552;10.092;2023-05-10T12:43:25;100827.19;;;15.26;81.88
72285;BME280;60220;53.552;10.092;2023-05-10T12:45:54;100839.78;;;14.88;82.19
72285;BME280;60220;53.552;10.092;2023-05-10T12:48:21;100840.50;;;15.52;80.51
72285;BME280;60220;53.552;10.092;2023-05-10T12:50:49;100843.13;;;15.54;79.73
72285;BME280;60220;53.552;10.092;2023-05-10T12:53:16;100842.50;;;15.44;81.57